Time;durP1;ratioP1;P1;durP2;ratioP2;P2;SDS_P1;SDS_P2;PMS_P1;PMS_P2;Temp;Humidity;BMP_temperature;BMP_pressure;BME280_temperature;BME280_humidity;BME280_pressure;Samples;Min_cycle;Max_cycle;Signal;HPM_P1;HPM_P2
2022/06/17 00:00:22;;;;;;;4.70;3.27;;;14.20;99.90;;;;;;5056227;28;20409;-85
2022/06/17 00:02:48;;;;;;;6.93;4.07;;;14.10;99.90;;;;;;5054915;28;20181;-86
2022/06/17 00:05:13;;;;;;;4.50;4.10;;;14.10;99.90;;;;;;5055909;28;20176;-90
2022/06/17 00:07:41;;;;;;;9.60;4.20;;;14.10;99.90;;;;;;5055742;28;20174;-86
2022/06/17 00:10:32;;;;;;;6.20;3.80;;;14.10;99.90;;;;;;5056031;28;20173;-88
2022/06/17 00:12:57;;;;;;;5.37;3.50;;;14.00;99.90;;;;;;5055226;28;20476;-87
2022/06/17 00:15:23;;;;;;;5.70;4.00;;;14.00;99.90;;;;;;5055298;28;20903;-86
2022/06/17 00:17:51;;;;;;;4.40;3.37;;;13.90;99.90;;;;;;5053778;28;20252;-86
2022/06/17 00:20:20;;;;;;;6.40;3.97;;;13.90;99.90;;;;;;5055342;28;20195;-86
2022/06/17 00:22:46;;;;;;;6.63;3.63;;;13.90;99.90;;;;;;5055169;28;21009;-86
2022/06/17 00:25:20;;;;;;;5.57;5.07;;;13.90;99.90;;;;;;5055291;28;20412;-86
2022/06/17 00:27:46;;;;;;;6.43;4.07;;;13.80;99.90;;;;;;5053839;28;20945;-86
2022/06/17 00:30:17;;;;;;;3.63;3.33;;;13.80;99.90;;;;;;5055156;28;20459;-87
2022/06/17 00:32:43;;;;;;;3.63;2.93;;;13.80;99.90;;;;;;5054461;28;20466;-87
2022/06/17 00:35:10;;;;;;;5.13;4.60;;;13.70;99.90;;;;;;5054062;28;20442;-87
2022/06/17 00:37:35;;;;;;;5.20;4.07;;;13.70;99.90;;;;;;5055445;28;20165;-87
2022/06/17 00:40:01;;;;;;;6.77;3.37;;;13.70;99.90;;;;;;5055340;28;20442;-87
2022/06/17 00:42:27;;;;;;;5.67;3.13;;;13.60;99.90;;;;;;5054016;28;20214;-88
2022/06/17 00:45:02;;;;;;;6.93;4.53;;;13.60;99.90;;;;;;5056090;28;20176;-90
2022/06/17 00:47:30;;;;;;;5.03;3.60;;;13.60;99.90;;;;;;5054419;28;20172;-90
2022/06/17 00:50:18;;;;;;;8.10;4.27;;;13.60;99.90;;;;;;5055870;28;20410;-89
2022/06/17 00:52:52;;;;;;;6.10;4.07;;;13.40;99.90;;;;;;5088035;28;21063;-90
2022/06/17 00:55:42;;;;;;;6.23;4.13;;;13.40;99.90;;;;;;5054526;28;20424;-89
2022/06/17 00:58:14;;;;;;;6.40;4.00;;;13.40;99.90;;;;;;5054209;28;21049;-89
2022/06/17 01:00:40;;;;;;;5.93;4.00;;;13.40;99.90;;;;;;5055318;28;20404;-89
2022/06/17 01:03:12;;;;;;;6.70;4.40;;;13.30;99.90;;;;;;5054476;28;20440;-89
2022/06/17 01:05:45;;;;;;;5.77;4.50;;;13.30;99.90;;;;;;5054617;28;20237;-91
2022/06/17 01:09:56;;;;;;;5.73;4.90;;;13.30;99.90;;;;;;5053638;28;20416;-87
2022/06/17 01:11:02;;;;;;;8.37;5.30;;;13.20;99.90;;;;;;5054788;28;20421;-89
2022/06/17 01:13:28;;;;;;;7.87;5.07;;;13.20;99.90;;;;;;5053996;28;20883;-90
2022/06/17 01:15:54;;;;;;;4.63;4.10;;;13.20;99.90;;;;;;5053637;28;20425;-90
2022/06/17 01:18:20;;;;;;;5.20;4.20;;;13.20;99.90;;;;;;5055352;28;20639;-89
2022/06/17 01:20:49;;;;;;;9.23;5.20;;;13.20;99.90;;;;;;5053929;28;20406;-84
2022/06/17 01:23:15;;;;;;;8.57;5.67;;;13.20;99.90;;;;;;5054231;28;20172;-84
2022/06/17 01:25:44;;;;;;;8.60;5.57;;;13.10;99.90;;;;;;5054154;28;20464;-89
2022/06/17 01:28:13;;;;;;;5.83;4.37;;;13.20;99.90;;;;;;5054238;28;20183;-88
2022/06/17 01:30:44;;;;;;;5.83;4.90;;;13.20;99.90;;;;;;5053814;28;20463;-85
2022/06/17 01:33:11;;;;;;;6.10;5.40;;;13.10;99.90;;;;;;5054265;28;20517;-86
2022/06/17 01:35:55;;;;;;;7.00;5.53;;;13.10;99.90;;;;;;5053917;28;20456;-86
2022/06/17 01:38:21;;;;;;;5.83;4.97;;;13.20;99.90;;;;;;5054079;28;20480;-88
2022/06/17 01:40:48;;;;;;;8.17;5.20;;;13.10;99.90;;;;;;5054109;28;20911;-87
2022/06/17 01:43:17;;;;;;;7.70;5.30;;;13.10;99.90;;;;;;5053855;28;20422;-86
2022/06/17 01:45:53;;;;;;;6.20;5.23;;;13.10;99.90;;;;;;5053490;28;20418;-86
2022/06/17 01:48:19;;;;;;;5.43;4.80;;;13.00;99.90;;;;;;5053923;28;20406;-88
2022/06/17 01:50:46;;;;;;;7.40;4.80;;;13.00;99.90;;;;;;5053809;28;20476;-85
2022/06/17 01:53:22;;;;;;;5.97;5.03;;;13.00;99.90;;;;;;5053678;28;20919;-85
2022/06/17 01:55:53;;;;;;;6.00;5.40;;;13.00;99.90;;;;;;5053898;28;20407;-85
2022/06/17 01:58:22;;;;;;;7.57;5.23;;;12.90;99.90;;;;;;5053294;28;20484;-86
2022/06/17 02:00:48;;;;;;;9.20;5.93;;;12.90;99.90;;;;;;5053249;28;20415;-87
2022/06/17 02:03:22;;;;;;;6.67;5.17;;;12.90;99.90;;;;;;5053506;28;20928;-86
2022/06/17 02:05:52;;;;;;;7.33;5.37;;;12.90;99.90;;;;;;5053564;28;20171;-86
2022/06/17 02:08:17;;;;;;;5.97;5.37;;;12.90;99.90;;;;;;5085766;28;20940;-85
2022/06/17 02:10:46;;;;;;;7.83;5.33;;;12.90;99.90;;;;;;5053288;28;20402;-86
2022/06/17 02:13:13;;;;;;;6.40;5.27;;;12.90;99.90;;;;;;5053627;28;20183;-87
2022/06/17 02:15:39;;;;;;;7.67;4.90;;;12.90;99.90;;;;;;5053331;28;20418;-89
2022/06/17 02:18:12;;;;;;;7.57;4.63;;;12.80;99.90;;;;;;5053576;28;20419;-88
2022/06/17 02:20:38;;;;;;;7.17;3.90;;;12.80;99.90;;;;;;5053520;28;20413;-88
2022/06/17 02:23:04;;;;;;;5.90;4.10;;;12.70;99.90;;;;;;5052195;28;20425;-87
2022/06/17 02:25:36;;;;;;;8.70;5.73;;;12.70;99.90;;;;;;5053381;28;20436;-88
2022/06/17 02:28:08;;;;;;;6.67;4.40;;;12.70;99.90;;;;;;5053197;28;20815;-87
2022/06/17 02:30:35;;;;;;;5.60;4.40;;;12.70;99.90;;;;;;5052888;28;20438;-88
2022/06/17 02:33:04;;;;;;;4.97;4.43;;;12.70;99.90;;;;;;5052198;28;20924;-89
2022/06/17 02:35:42;;;;;;;5.23;3.97;;;12.70;99.90;;;;;;5052158;28;20425;-89
2022/06/17 02:38:15;;;;;;;5.67;4.60;;;12.60;99.90;;;;;;5053451;28;20415;-91
2022/06/17 02:40:53;;;;;;;6.57;4.97;;;12.60;99.90;;;;;;5052488;28;20473;-89
2022/06/17 02:43:22;;;;;;;7.53;4.57;;;12.60;99.90;;;;;;5052675;28;20423;-91
2022/06/17 02:46:11;;;;;;;7.93;4.83;;;12.60;99.90;;;;;;5052198;28;20421;-88
2022/06/17 02:48:54;;;;;;;6.77;4.13;;;12.50;99.90;;;;;;5053260;28;20423;-88
2022/06/17 02:51:22;;;;;;;6.00;4.60;;;12.40;99.90;;;;;;5052327;28;20489;-91
2022/06/17 02:53:48;;;;;;;5.30;4.10;;;12.40;99.90;;;;;;5052512;28;20475;-91
2022/06/17 02:56:20;;;;;;;7.33;5.30;;;12.40;99.90;;;;;;5052355;28;20908;-88
2022/06/17 02:59:15;;;;;;;6.13;4.67;;;12.30;99.90;;;;;;5053409;28;20219;-89
2022/06/17 03:01:42;;;;;;;7.20;5.03;;;12.30;99.90;;;;;;5052322;28;20511;-89
2022/06/17 03:04:19;;;;;;;6.33;5.70;;;12.20;99.90;;;;;;5053681;28;20442;-91
2022/06/17 03:06:47;;;;;;;5.20;3.93;;;12.00;99.90;;;;;;5085521;28;20827;-89
2022/06/17 03:09:20;;;;;;;7.20;4.33;;;11.90;99.90;;;;;;5052321;28;20410;-91
2022/06/17 03:12:04;;;;;;;6.83;5.00;;;11.80;99.90;;;;;;5052487;28;20774;-86
2022/06/17 03:14:37;;;;;;;6.20;4.97;;;11.70;99.90;;;;;;5053636;28;20422;-93
2022/06/17 03:17:07;;;;;;;5.90;5.10;;;11.60;99.90;;;;;;5052343;28;20441;-82
2022/06/17 03:19:36;;;;;;;6.43;4.67;;;11.60;99.90;;;;;;5053169;28;20447;-93
2022/06/17 03:22:03;;;;;;;7.33;5.47;;;11.50;99.90;;;;;;5051388;28;20502;-86
2022/06/17 03:24:46;;;;;;;6.23;5.60;;;11.50;99.90;;;;;;5053230;28;20826;-91
2022/06/17 03:27:44;;;;;;;6.17;4.93;;;11.50;99.90;;;;;;5052055;28;20420;-89
2022/06/17 03:30:13;;;;;;;8.17;5.10;;;11.40;99.90;;;;;;5052026;28;20427;-88
2022/06/17 03:32:44;;;;;;;5.40;4.90;;;11.40;99.90;;;;;;5053404;28;20519;-92
2022/06/17 03:35:24;;;;;;;5.33;4.23;;;11.50;99.90;;;;;;5052255;28;20463;-92
2022/06/17 03:38:07;;;;;;;6.90;5.13;;;11.50;99.90;;;;;;5053375;28;20410;-92
2022/06/17 03:40:39;;;;;;;7.80;5.30;;;11.50;99.90;;;;;;5053458;28;20436;-92
2022/06/17 03:43:28;;;;;;;6.13;5.50;;;11.50;99.90;;;;;;5052994;28;20465;-93
2022/06/17 03:46:00;;;;;;;9.30;5.03;;;11.50;99.90;;;;;;5056716;28;20404;-87
2022/06/17 03:48:40;;;;;;;6.40;5.53;;;11.60;99.90;;;;;;5057139;28;20411;-90
2022/06/17 03:51:13;;;;;;;6.53;5.53;;;11.60;99.90;;;;;;5056866;28;20397;-87
2022/06/17 03:53:41;;;;;;;5.70;4.90;;;11.60;99.90;;;;;;5056533;28;20408;-85
2022/06/17 03:56:16;;;;;;;5.00;4.10;;;11.70;99.90;;;;;;5055004;28;20424;-88
2022/06/17 03:58:43;;;;;;;8.80;4.93;;;11.70;99.90;;;;;;5056181;28;20456;-89
2022/06/17 04:01:16;;;;;;;5.80;4.30;;;11.80;99.90;;;;;;5055831;28;20482;-89
2022/06/17 04:03:46;;;;;;;7.80;6.83;;;11.80;99.90;;;;;;5056104;28;20413;-88
2022/06/17 04:06:16;;;;;;;8.33;5.53;;;11.90;99.90;;;;;;5056282;28;20400;-86
2022/06/17 04:08:53;;;;;;;8.57;5.53;;;12.00;99.90;;;;;;5056117;28;20412;-88
2022/06/17 04:11:23;;;;;;;8.50;5.80;;;12.10;99.90;;;;;;5056185;28;20913;-88
2022/06/17 04:13:49;;;;;;;7.07;5.50;;;12.30;99.90;;;;;;5055796;28;20910;-89
2022/06/17 04:16:22;;;;;;;9.47;5.43;;;12.40;99.90;;;;;;5055590;28;20424;-89
2022/06/17 04:18:47;;;;;;;8.23;6.10;;;12.40;99.90;;;;;;5055645;28;20508;-86
2022/06/17 04:21:13;;;;;;;7.07;4.50;;;12.50;99.90;;;;;;5055750;28;20476;-89
2022/06/17 04:23:40;;;;;;;7.63;5.77;;;12.60;99.90;;;;;;5055797;28;20180;-87
2022/06/17 04:26:23;;;;;;;6.23;5.17;;;12.60;99.90;;;;;;5055595;28;20163;-88
2022/06/17 04:28:52;;;;;;;6.47;4.87;;;12.70;99.90;;;;;;5056083;28;20469;-92
2022/06/17 04:31:24;;;;;;;6.40;5.73;;;12.80;99.90;;;;;;5055889;28;20415;-89
2022/06/17 04:33:55;;;;;;;8.50;6.07;;;12.80;99.90;;;;;;5056066;28;20421;-92
2022/06/17 04:36:35;;;;;;;6.73;5.60;;;12.80;99.90;;;;;;5056184;28;20472;-89
2022/06/17 04:39:33;;;;;;;7.70;4.50;;;12.90;99.90;;;;;;5056429;28;20408;-90
2022/06/17 04:42:04;;;;;;;10.43;5.27;;;12.90;99.90;;;;;;5055816;28;20449;-90
2022/06/17 04:44:30;;;;;;;6.93;5.30;;;13.00;99.90;;;;;;5055853;28;20450;-91
2022/06/17 04:47:01;;;;;;;10.10;5.80;;;13.10;99.90;;;;;;5055667;28;20449;-89
2022/06/17 04:49:29;;;;;;;11.60;5.67;;;13.10;99.90;;;;;;5055819;28;20182;-90
2022/06/17 04:52:00;;;;;;;9.73;6.70;;;13.20;99.90;;;;;;5055721;28;20910;-88
2022/06/17 04:54:28;;;;;;;5.73;5.20;;;13.30;99.90;;;;;;5054826;28;20499;-91
2022/06/17 04:56:56;;;;;;;7.10;5.50;;;13.30;99.90;;;;;;5055030;28;20426;-85
2022/06/17 04:59:32;;;;;;;7.73;5.43;;;13.40;99.90;;;;;;5054494;28;20530;-86
2022/06/17 05:01:59;;;;;;;8.33;5.50;;;13.50;99.90;;;;;;5054142;28;20837;-87
2022/06/17 05:04:26;;;;;;;5.53;4.33;;;13.50;99.90;;;;;;5054671;28;20415;-87
2022/06/17 05:06:53;;;;;;;8.10;5.70;;;13.60;99.90;;;;;;5054505;28;20423;-86
2022/06/17 05:09:31;;;;;;;7.47;5.10;;;13.70;99.90;;;;;;5054519;28;20407;-86
2022/06/17 05:12:04;;;;;;;8.13;5.93;;;13.90;99.90;;;;;;5054427;28;20413;-86
2022/06/17 05:14:41;;;;;;;8.13;5.17;;;14.00;99.90;;;;;;5053136;28;20457;-86
2022/06/17 05:17:07;;;;;;;8.27;4.90;;;14.10;99.90;;;;;;5053996;28;20418;-88
2022/06/17 05:19:33;;;;;;;9.37;6.27;;;14.30;99.90;;;;;;5087259;28;20422;-86
2022/06/17 05:21:59;;;;;;;8.37;5.17;;;14.40;99.90;;;;;;5070138;28;20216;-89
2022/06/17 05:24:26;;;;;;;6.73;6.03;;;14.60;99.90;;;;;;5054421;28;20602;-87
2022/06/17 05:26:52;;;;;;;8.80;6.47;;;14.80;55.80;;;;;;5054114;28;20426;-93
2022/06/17 05:29:17;;;;;;;6.20;4.63;;;15.10;4.90;;;;;;5054426;28;20410;-89
2022/06/17 05:31:49;;;;;;;6.50;5.90;;;15.40;1.00;;;;;;5054141;28;20170;-88
2022/06/17 05:34:15;;;;;;;6.97;5.70;;;15.70;1.00;;;;;;5054493;28;20161;-89
2022/06/17 05:36:41;;;;;;;6.53;4.97;;;16.00;1.00;;;;;;5054721;28;20416;-89
2022/06/17 05:39:06;;;;;;;7.23;5.30;;;16.40;1.00;;;;;;5054521;28;20750;-89
2022/06/17 05:41:32;;;;;;;6.03;5.00;;;16.70;1.00;;;;;;5054057;28;20206;-88
2022/06/17 05:44:00;;;;;;;7.70;5.73;;;17.10;99.90;;;;;;5054173;28;20261;-88
2022/06/17 05:46:26;;;;;;;6.63;4.63;;;17.30;99.90;;;;;;5053855;28;20175;-89
2022/06/17 05:48:52;;;;;;;8.57;5.57;;;17.50;1.00;;;;;;5053135;28;20934;-89
2022/06/17 05:51:17;;;;;;;6.30;5.60;;;17.90;1.00;;;;;;5086493;28;20506;-89
2022/06/17 05:53:43;;;;;;;8.00;5.60;;;18.20;29.00;;;;;;5053139;28;20616;-89
2022/06/17 05:56:08;;;;;;;7.37;5.90;;;18.40;1.00;;;;;;5054291;28;20250;-88
2022/06/17 05:58:34;;;;;;;6.50;5.70;;;18.70;1.00;;;;;;5054104;28;20672;-91
2022/06/17 06:00:59;;;;;;;7.23;5.90;;;18.90;99.90;;;;;;5052451;28;20587;-87
2022/06/17 06:03:27;;;;;;;8.43;5.20;;;19.00;55.80;;;;;;5054051;28;20635;-86
2022/06/17 06:05:53;;;;;;;9.10;5.57;;;19.30;1.00;;;;;;5053900;28;20524;-89
2022/06/17 06:08:19;;;;;;;6.17;5.10;;;19.60;1.00;;;;;;5052692;28;20954;-90
2022/06/17 06:10:45;;;;;;;5.57;4.60;;;19.80;1.00;;;;;;5053850;28;20408;-90
2022/06/17 06:13:20;;;;;;;7.60;4.60;;;19.90;99.90;;;;;;5054140;28;20174;-93
2022/06/17 06:15:48;;;;;;;8.10;4.67;;;20.20;99.90;;;;;;5053904;28;20413;-90
2022/06/17 06:18:16;;;;;;;6.70;4.90;;;20.30;99.90;;;;;;5055097;28;20464;-89
2022/06/17 06:20:43;;;;;;;10.17;4.83;;;20.50;99.90;;;;;;5055355;28;20423;-94
2022/06/17 06:23:09;;;;;;;5.80;4.40;;;20.60;99.90;;;;;;5053474;28;20496;-88
2022/06/17 06:25:35;;;;;;;7.77;4.37;;;20.80;99.90;;;;;;5053543;28;20444;-88
2022/06/17 06:28:13;;;;;;;9.70;4.93;;;21.00;99.90;;;;;;5052447;28;20425;-88
2022/06/17 06:30:42;;;;;;;5.43;3.37;;;21.00;99.90;;;;;;5053170;28;20406;-90
2022/06/17 06:33:10;;;;;;;4.73;4.20;;;21.30;99.90;;;;;;5053645;28;20422;-91
2022/06/17 06:35:38;;;;;;;5.80;3.73;;;21.40;99.90;;;;;;5052498;28;20432;-90
2022/06/17 06:38:06;;;;;;;5.37;4.23;;;21.60;99.90;;;;;;5052748;28;20418;-90
2022/06/17 06:40:35;;;;;;;4.50;3.53;;;21.90;99.90;;;;;;5053876;28;20477;-89
2022/06/17 06:43:01;;;;;;;4.00;2.83;;;21.90;99.90;;;;;;5053554;28;20997;-91
2022/06/17 06:45:30;;;;;;;3.43;2.60;;;22.10;99.90;;;;;;5053834;28;20406;-91
2022/06/17 06:47:58;;;;;;;3.60;2.20;;;22.10;77.20;;;;;;5053818;28;20177;-89
2022/06/17 06:50:26;;;;;;;5.77;2.67;;;22.00;62.20;;;;;;5054138;28;20404;-92
2022/06/17 06:52:52;;;;;;;5.73;2.63;;;22.20;41.30;;;;;;5053902;28;20464;-91
2022/06/17 06:55:18;;;;;;;4.13;2.57;;;22.30;35.80;;;;;;5052513;28;20420;-91
2022/06/17 06:58:05;;;;;;;4.67;2.83;;;22.40;22.70;;;;;;5053218;28;20680;-89
2022/06/17 07:00:37;;;;;;;6.13;1.70;;;22.40;15.30;;;;;;5085580;28;20201;-88
2022/06/17 07:03:04;;;;;;;3.53;2.03;;;22.80;11.20;;;;;;5053050;28;20601;-87
2022/06/17 07:05:30;;;;;;;3.33;2.70;;;23.40;5.30;;;;;;5052901;28;20405;-85
2022/06/17 07:07:56;;;;;;;2.87;1.77;;;24.20;1.70;;;;;;5052990;28;20903;-88
2022/06/17 07:10:25;;;;;;;3.27;1.90;;;25.00;1.00;;;;;;5053415;28;20806;-90
2022/06/17 07:12:52;;;;;;;4.70;2.43;;;25.80;1.00;;;;;;5053135;28;20418;-87
2022/06/17 07:15:18;;;;;;;2.87;2.53;;;26.50;1.00;;;;;;5052786;28;20451;-87
2022/06/17 07:17:53;;;;;;;2.80;1.83;;;26.70;1.00;;;;;;5053374;28;20415;-87
2022/06/17 07:20:18;;;;;;;4.37;1.80;;;27.40;1.00;;;;;;5056800;28;20482;-89
2022/06/17 07:22:44;;;;;;;6.20;1.87;;;28.20;1.00;;;;;;5056463;28;20574;-90
2022/06/17 07:25:09;;;;;;;4.23;2.00;;;28.90;1.00;;;;;;5055296;28;20173;-83
2022/06/17 07:27:35;;;;;;;2.60;1.60;;;29.10;1.00;;;;;;5056585;28;20177;-88
2022/06/17 07:30:00;;;;;;;8.73;2.00;;;29.80;1.00;;;;;;5055238;28;20169;-87
2022/06/17 07:32:26;;;;;;;5.13;1.63;;;31.00;1.00;;;;;;5056412;28;20204;-85
2022/06/17 07:34:51;;;;;;;3.07;1.50;;;31.10;1.00;;;;;;5055179;28;20173;-87
2022/06/17 07:40:04;;;;;;;3.43;1.47;;;31.90;1.00;;;;;;5056385;28;20211;-86
2022/06/17 07:42:39;;;;;;;5.10;2.20;;;32.70;1.00;;;;;;5056254;28;20525;-88
2022/06/17 07:45:11;;;;;;;2.90;1.70;;;33.20;1.00;;;;;;5054933;28;20423;-89
2022/06/17 07:47:37;;;;;;;3.10;1.77;;;34.10;1.00;;;;;;5056573;28;20422;-89
2022/06/17 07:50:06;;;;;;;3.50;1.67;;;34.20;1.00;;;;;;5056474;28;20408;-86
2022/06/17 07:52:31;;;;;;;6.57;1.90;;;33.10;1.00;;;;;;5054569;28;20197;-86
2022/06/17 07:54:57;;;;;;;2.27;1.40;;;33.70;1.00;;;;;;5056509;28;20413;-86
2022/06/17 07:57:22;;;;;;;4.30;2.50;;;33.90;1.00;;;;;;5054606;28;20169;-88
2022/06/17 07:59:48;;;;;;;3.43;2.37;;;34.10;1.00;;;;;;5054650;28;20177;-87
2022/06/17 08:02:13;;;;;;;4.07;1.93;;;34.70;1.00;;;;;;5056036;28;20297;-90
2022/06/17 08:04:42;;;;;;;2.40;1.57;;;35.20;1.00;;;;;;5057247;28;20529;-92
2022/06/17 08:07:07;;;;;;;5.10;1.73;;;35.60;1.00;;;;;;5055642;28;20190;-88
2022/06/17 08:09:33;;;;;;;3.53;1.30;;;35.50;1.00;;;;;;5071550;28;20470;-86
2022/06/17 08:11:59;;;;;;;2.27;1.73;;;35.80;1.00;;;;;;5056033;28;20197;-88
2022/06/17 08:14:25;;;;;;;3.77;1.47;;;35.70;1.00;;;;;;5054049;28;20209;-85
2022/06/17 08:16:50;;;;;;;3.00;1.30;;;35.80;1.00;;;;;;5055654;28;20195;-87
2022/06/17 08:19:16;;;;;;;4.67;1.67;;;36.00;1.00;;;;;;5055469;28;20424;-86
2022/06/17 08:21:41;;;;;;;3.30;1.20;;;36.20;1.00;;;;;;5055606;28;20213;-87
2022/06/17 08:24:08;;;;;;;2.50;1.10;;;35.90;1.00;;;;;;5055915;28;20212;-87
2022/06/17 08:26:34;;;;;;;2.30;1.70;;;36.20;1.00;;;;;;5055408;28;20177;-88
2022/06/17 08:28:59;;;;;;;2.30;0.97;;;36.40;1.00;;;;;;5055725;28;20725;-89
2022/06/17 08:31:25;;;;;;;3.60;1.20;;;36.80;1.00;;;;;;5054586;28;20178;-88
2022/06/17 08:33:51;;;;;;;1.53;0.90;;;36.10;1.00;;;;;;5054455;28;20177;-88
2022/06/17 08:36:24;;;;;;;2.30;1.07;;;36.20;1.00;;;;;;5055458;28;20177;-89
2022/06/17 08:38:53;;;;;;;2.53;1.47;;;37.20;1.00;;;;;;5055564;28;20683;-87
2022/06/17 08:41:29;;;;;;;2.20;1.43;;;38.00;1.00;;;;;;5055809;28;20431;-93
2022/06/17 08:44:14;;;;;;;5.10;1.50;;;38.10;1.00;;;;;;5055940;28;20904;-89
2022/06/17 08:46:52;;;;;;;2.70;1.20;;;36.90;1.00;;;;;;5054631;28;20419;-89
2022/06/17 08:49:44;;;;;;;2.20;1.40;;;37.50;1.00;;;;;;5055205;28;20416;-89
2022/06/17 08:52:24;;;;;;;2.37;2.17;;;37.70;1.00;;;;;;5071063;28;20420;-91
2022/06/17 08:55:05;;;;;;;1.47;1.07;;;36.30;1.00;;;;;;5055682;28;20419;-91
2022/06/17 08:58:04;;;;;;;1.90;1.10;;;38.20;1.00;;;;;;5070712;28;20420;-92
2022/06/17 09:00:44;;;;;;;2.80;1.70;;;39.40;1.00;;;;;;5052348;28;20424;-88
2022/06/17 09:03:09;;;;;;;1.80;1.40;;;37.80;1.00;;;;;;5054583;28;20460;-90
2022/06/17 09:05:40;;;;;;;2.50;1.50;;;36.30;1.00;;;;;;5054685;28;20961;-87
2022/06/17 09:08:31;;;;;;;3.30;1.83;;;34.80;1.00;;;;;;5054562;28;20169;-86
2022/06/17 09:11:19;;;;;;;2.60;1.67;;;33.00;1.00;;;;;;5054930;28;20779;-90
2022/06/17 09:13:50;;;;;;;6.23;1.80;;;32.60;1.00;;;;;;5044224;28;20451;-90
2022/06/17 09:16:25;;;;;;;1.83;1.23;;;32.20;1.00;;;;;;5069660;28;20794;-87
2022/06/17 09:18:59;;;;;;;3.00;1.30;;;32.10;1.00;;;;;;5053230;28;20511;-90
2022/06/17 09:21:49;;;;;;;3.90;1.30;;;31.60;1.00;;;;;;5070121;28;20872;-90
2022/06/17 09:24:20;;;;;;;4.53;0.80;;;31.30;1.00;;;;;;5054500;28;20416;-89
2022/06/17 09:26:56;;;;;;;3.67;1.40;;;31.40;1.00;;;;;;5054555;28;20393;-89
2022/06/17 09:29:54;;;;;;;3.10;1.20;;;31.80;1.00;;;;;;5054065;28;20916;-88
2022/06/17 09:32:30;;;;;;;2.60;1.27;;;32.10;1.00;;;;;;5052992;28;20424;-90
2022/06/17 09:35:05;;;;;;;3.40;1.90;;;32.20;1.00;;;;;;5054211;28;20408;-89
2022/06/17 09:37:34;;;;;;;5.17;1.03;;;33.20;1.00;;;;;;5052781;28;20777;-88
2022/06/17 09:40:09;;;;;;;2.57;1.00;;;34.40;1.00;;;;;;5054126;28;20780;-89
2022/06/17 09:42:46;;;;;;;2.90;1.70;;;34.50;1.00;;;;;;5052469;28;20948;-87
2022/06/17 09:45:29;;;;;;;5.57;1.57;;;34.30;1.00;;;;;;5052333;28;20979;-89
2022/06/17 09:48:01;;;;;;;2.03;1.10;;;36.40;1.00;;;;;;5054098;28;20412;-90
2022/06/17 09:50:32;;;;;;;2.70;1.37;;;38.30;1.00;;;;;;5053858;28;20414;-90
2022/06/17 09:53:04;;;;;;;1.70;0.97;;;37.80;1.00;;;;;;5052927;28;20513;-90
2022/06/17 09:55:37;;;;;;;3.27;1.50;;;38.00;1.00;;;;;;5054140;28;20392;-91
2022/06/17 09:58:21;;;;;;;2.93;1.47;;;38.10;1.00;;;;;;5053788;28;20452;-90
2022/06/17 10:00:53;;;;;;;2.27;1.63;;;38.10;1.00;;;;;;5053737;28;20885;-90
2022/06/17 10:03:37;;;;;;;2.67;1.23;;;37.30;1.00;;;;;;5054177;28;20408;-89
2022/06/17 10:06:29;;;;;;;7.10;2.87;;;36.70;1.00;;;;;;5069137;28;20412;-88
2022/06/17 10:08:57;;;;;;;3.53;2.10;;;35.40;1.00;;;;;;5053656;28;20495;-89
2022/06/17 10:11:49;;;;;;;4.90;1.90;;;34.90;1.00;;;;;;5068998;28;20547;-89
2022/06/17 10:14:33;;;;;;;10.03;2.23;;;34.00;1.00;;;;;;5053401;28;20503;-89
2022/06/17 10:20:19;;;;;;;3.97;1.53;;;33.50;1.00;;;;;;5053828;28;20426;-89
2022/06/17 10:23:10;;;;;;;6.10;1.60;;;34.20;1.00;;;;;;5053755;28;20467;-90
2022/06/17 10:26:20;;;;;;;5.63;1.87;;;34.20;1.00;;;;;;5069494;28;20782;-89
2022/06/17 10:29:10;;;;;;;3.43;2.67;;;34.90;1.00;;;;;;5042157;28;20772;-90
2022/06/17 10:31:39;;;;;;;5.37;2.13;;;35.10;1.00;;;;;;5069049;28;21304;-90
2022/06/17 10:34:21;;;;;;;4.97;1.93;;;35.10;1.00;;;;;;5052167;28;20443;-90
2022/06/17 10:36:49;;;;;;;2.70;1.47;;;34.90;1.00;;;;;;5052933;28;21269;-91
2022/06/17 10:39:17;;;;;;;2.57;1.77;;;34.90;1.00;;;;;;5052748;28;20511;-90
2022/06/17 10:41:43;;;;;;;4.23;2.37;;;34.70;1.00;;;;;;5053452;28;20423;-90
2022/06/17 10:44:11;;;;;;;2.80;2.47;;;33.40;1.00;;;;;;5051794;28;20819;-90
2022/06/17 10:46:44;;;;;;;3.70;2.50;;;32.80;1.00;;;;;;5066273;28;20212;-90
2022/06/17 10:49:24;;;;;;;3.83;2.50;;;32.50;1.00;;;;;;5074324;28;20458;-89
2022/06/17 10:51:53;;;;;;;4.37;2.50;;;31.80;1.00;;;;;;5075414;28;20467;-90
2022/06/17 10:54:36;;;;;;;4.03;2.47;;;32.20;1.00;;;;;;5079623;28;20416;-90
2022/06/17 10:57:05;;;;;;;4.63;2.70;;;33.00;1.00;;;;;;5064029;28;20404;-91
2022/06/17 10:59:35;;;;;;;4.67;2.90;;;32.80;1.00;;;;;;5057072;28;20490;-91
2022/06/17 11:02:00;;;;;;;2.70;2.13;;;33.10;1.00;;;;;;5057410;28;20793;-90
2022/06/17 11:04:28;;;;;;;5.83;3.60;;;33.00;1.00;;;;;;5056152;28;20427;-90
2022/06/17 11:07:17;;;;;;;5.73;2.53;;;33.10;1.00;;;;;;5072979;28;20177;-90
2022/06/17 11:09:51;;;;;;;3.83;2.80;;;32.20;1.00;;;;;;5056047;28;20431;-89
2022/06/17 11:12:22;;;;;;;5.50;3.30;;;31.60;1.00;;;;;;5056047;28;20478;-90
2022/06/17 11:14:52;;;;;;;5.03;3.00;;;30.60;1.00;;;;;;5057043;28;20816;-90
2022/06/17 11:17:40;;;;;;;3.43;2.30;;;30.70;1.00;;;;;;5057257;28;20420;-90
2022/06/17 11:20:27;;;;;;;4.20;2.33;;;30.60;1.00;;;;;;5057444;28;20406;-90
2022/06/17 11:22:59;;;;;;;4.17;2.50;;;30.40;1.00;;;;;;5057279;28;20457;-90
2022/06/17 11:25:30;;;;;;;3.07;2.30;;;30.00;1.00;;;;;;5056089;28;20419;-90
2022/06/17 11:28:22;;;;;;;3.27;1.80;;;30.00;1.00;;;;;;5056943;28;20423;-89
2022/06/17 11:31:14;;;;;;;2.87;1.90;;;29.90;1.00;;;;;;5054082;28;20429;-90
2022/06/17 11:33:54;;;;;;;2.47;1.30;;;29.80;1.00;;;;;;5057193;28;20435;-90
2022/06/17 11:36:27;;;;;;;2.73;1.63;;;29.80;1.00;;;;;;5072536;28;20449;-88
2022/06/17 11:38:52;;;;;;;5.10;1.93;;;29.30;1.00;;;;;;5059994;28;20506;-89
2022/06/17 11:41:25;;;;;;;4.80;1.80;;;29.30;1.00;;;;;;5060109;28;20840;-90
2022/06/17 11:43:52;;;;;;;3.27;1.97;;;29.80;1.00;;;;;;5056858;28;20176;-91
2022/06/17 11:46:28;;;;;;;2.83;2.07;;;30.30;1.00;;;;;;5056646;28;20416;-91
2022/06/17 11:48:59;;;;;;;3.93;2.23;;;30.10;1.00;;;;;;5056959;28;20420;-90
2022/06/17 11:51:28;;;;;;;2.50;1.10;;;29.50;1.00;;;;;;5056610;28;20396;-90
2022/06/17 11:54:02;;;;;;;3.67;1.13;;;29.90;1.00;;;;;;5056497;28;20515;-90
2022/06/17 11:56:36;;;;;;;2.43;1.37;;;30.20;1.00;;;;;;5056330;28;20412;-89
2022/06/17 11:59:37;;;;;;;3.13;1.50;;;29.80;1.00;;;;;;5055749;28;20963;-89
2022/06/17 12:02:06;;;;;;;6.10;2.37;;;29.40;1.00;;;;;;5052612;28;20416;-91
2022/06/17 12:05:07;;;;;;;3.80;1.77;;;29.60;1.00;;;;;;5054429;28;20483;-90
2022/06/17 12:07:47;;;;;;;2.20;1.70;;;29.60;1.00;;;;;;5048018;28;20499;-90
2022/06/17 12:10:37;;;;;;;2.57;1.87;;;29.30;1.00;;;;;;5056247;28;20773;-89
2022/06/17 12:13:27;;;;;;;4.50;1.50;;;29.30;1.00;;;;;;5056113;28;20460;-89
2022/06/17 12:16:14;;;;;;;4.13;2.43;;;29.40;1.00;;;;;;5070991;28;20480;-89
2022/06/17 12:18:45;;;;;;;4.07;2.20;;;29.20;1.00;;;;;;5055836;28;20482;-89
2022/06/17 12:21:14;;;;;;;3.40;1.90;;;29.00;1.00;;;;;;5054700;28;20408;-89
2022/06/17 12:23:45;;;;;;;3.33;1.97;;;29.00;1.00;;;;;;5071646;28;20423;-91
2022/06/17 12:26:16;;;;;;;2.80;2.40;;;29.00;1.00;;;;;;5054896;28;20412;-91
2022/06/17 12:29:10;;;;;;;2.40;2.20;;;29.00;1.00;;;;;;5056179;28;20416;-91
2022/06/17 12:31:49;;;;;;;6.27;3.47;;;28.60;1.00;;;;;;5071721;28;20471;-90
2022/06/17 12:34:37;;;;;;;2.70;1.97;;;28.50;1.00;;;;;;5055864;28;20422;-90
2022/06/17 12:37:27;;;;;;;4.30;1.90;;;28.60;1.00;;;;;;5055593;28;20433;-90
2022/06/17 12:40:01;;;;;;;3.63;1.80;;;28.60;1.00;;;;;;5056179;28;20432;-90
2022/06/17 12:42:40;;;;;;;7.23;3.93;;;28.50;1.00;;;;;;5054933;28;20499;-90
2022/06/17 12:45:23;;;;;;;5.63;1.77;;;28.40;1.00;;;;;;5056154;28;20896;-91
2022/06/17 12:48:21;;;;;;;3.43;2.07;;;28.40;1.00;;;;;;5056647;28;20427;-90
2022/06/17 12:54:17;;;;;;;8.67;4.73;;;28.80;1.00;;;;;;5056258;28;20420;-91
2022/06/17 12:56:59;;;;;;;5.83;4.07;;;29.10;1.00;;;;;;5057002;28;20409;-91
2022/06/17 12:59:52;;;;;;;7.93;4.47;;;29.70;1.00;;;;;;5054812;28;20562;-91
2022/06/17 13:02:34;;;;;;;6.53;3.77;;;30.30;1.00;;;;;;5055387;28;20412;-90
2022/06/17 13:05:16;;;;;;;5.73;2.97;;;30.60;1.00;;;;;;5055270;28;20404;-90
2022/06/17 13:07:53;;;;;;;7.20;3.30;;;30.60;1.00;;;;;;5054073;28;20424;-89
2022/06/17 13:10:39;;;;;;;9.20;3.10;;;30.30;1.00;;;;;;5054658;28;20410;-88
2022/06/17 13:13:19;;;;;;;3.20;1.60;;;29.60;1.00;;;;;;5054562;28;20471;-89
2022/06/17 13:15:55;;;;;;;6.47;3.00;;;29.60;1.00;;;;;;5052509;28;20404;-87
2022/06/17 13:18:44;;;;;;;3.77;2.00;;;29.90;1.00;;;;;;5055021;28;20459;-90
2022/06/17 13:21:17;;;;;;;3.13;2.23;;;30.80;1.00;;;;;;5054722;28;20404;-88
2022/06/17 13:23:51;;;;;;;3.00;1.83;;;32.40;1.00;;;;;;5055118;28;20462;-90
2022/06/17 13:26:20;;;;;;;2.30;1.97;;;33.70;1.00;;;;;;5055076;28;20821;-91
2022/06/17 13:28:52;;;;;;;4.80;2.20;;;34.20;1.00;;;;;;5055283;28;20424;-91
2022/06/17 13:31:27;;;;;;;6.03;2.00;;;34.00;1.00;;;;;;5055934;28;20412;-91